logo
Search for airport 
image banner adimage banner adimage banner ad
image banner ad

FASTER - Sterkfontein

Located in , South Africa

ICAO - , IATA -

Data provided by Airmate  

General information

Coordinates: S26°2'45" E27°42'7"
Elevation is 2650 feet MSL.
 
View others Airports in Limpopo

Operational data

Special qualification required
Current time UTC:
Current local time:
Weather at : FALA - Lanseria International ( 25 km )
METAR: FALA 251700Z 25003KT CAVOK 17/04 Q1027 NOSIG
TAF: TAF FALA 251600Z 2518/2618 VRB03KT CAVOK TX24/2612Z TN07/2604Z BECMG 2610/2612 20008KT BECMG 2616/2618 VRB03KT
View NOTAMs / SUP AIP / TFR affecting this airport [VIEW]
Communications frequencies: [VIEW]

Runways:

RWY identifierQFULength (ft)Width (ft)SurfaceLDA (ft)
16138°262549SAND
34318°262549SAND
1295°262549SAND
30275°262549SAND

Airport contact information

Address: South Africa

Satellite view of FASTER